Time;durP1;ratioP1;P1;durP2;ratioP2;P2;SDS_P1;SDS_P2;PMS_P1;PMS_P2;Temp;Humidity;BMP_temperature;BMP_pressure;BME280_temperature;BME280_humidity;BME280_pressure;Samples;Min_cycle;Max_cycle;Signal;HPM_P1;HPM_P2
2021/12/05 00:22:48;;;;;;;1999.90;999.90;;;4.80;99.90;;;;;;5014564;28;20471;-71
2021/12/05 00:25:19;;;;;;;1999.90;999.90;;;4.80;99.90;;;;;;5014214;28;20456;-71
2021/12/05 00:27:56;;;;;;;1999.90;999.90;;;4.90;99.90;;;;;;5014708;28;20463;-70
2021/12/05 00:30:47;;;;;;;1999.90;999.90;;;4.90;99.90;;;;;;5013664;28;20563;-71
2021/12/05 00:33:33;;;;;;;1999.90;999.90;;;4.90;99.90;;;;;;4995015;28;20488;-71
2021/12/05 00:39:24;;;;;;;1999.90;999.90;;;5.00;99.90;;;;;;4958782;28;20459;-71
2021/12/05 00:42:12;;;;;;;1999.90;999.90;;;5.00;99.90;;;;;;5013651;28;20480;-71
2021/12/05 00:45:17;;;;;;;1999.90;999.90;;;5.00;99.90;;;;;;5014272;28;20452;-72
2021/12/05 00:47:58;;;;;;;1999.90;999.90;;;5.00;99.90;;;;;;5014347;28;20552;-71
2021/12/05 00:51:06;;;;;;;1999.90;999.90;;;5.00;99.90;;;;;;5013018;28;20480;-71
2021/12/05 00:54:10;;;;;;;1999.90;999.90;;;5.00;99.90;;;;;;4996040;28;20445;-71
2021/12/05 00:56:50;;;;;;;1999.90;999.90;;;5.00;99.90;;;;;;5044095;22;20494;-69
2021/12/05 00:59:33;;;;;;;1999.90;999.90;;;5.00;99.90;;;;;;5030904;28;21065;-69
2021/12/05 01:02:18;;;;;;;1999.90;999.90;;;5.00;99.90;;;;;;5033179;28;20431;-69
2021/12/05 01:05:12;;;;;;;1999.90;999.90;;;5.10;99.90;;;;;;5034921;28;20439;-70
2021/12/05 01:08:04;;;;;;;1999.90;999.90;;;5.10;99.90;;;;;;5014860;28;20483;-69
2021/12/05 01:10:50;;;;;;;1999.90;999.90;;;5.10;99.90;;;;;;5014114;28;20460;-72
2021/12/05 01:13:33;;;;;;;1999.90;999.90;;;5.10;99.90;;;;;;5014244;28;20444;-70
2021/12/05 01:16:03;;;;;;;1999.90;999.90;;;5.10;99.90;;;;;;4993405;28;21156;-71
2021/12/05 01:18:32;;;;;;;1999.90;999.90;;;5.10;99.90;;;;;;4996183;28;20460;-71
2021/12/05 01:21:05;;;;;;;1999.90;999.90;;;5.10;99.90;;;;;;5013605;28;20479;-71
2021/12/05 01:23:39;;;;;;;1999.90;999.90;;;5.20;99.90;;;;;;5013759;28;20535;-71
2021/12/05 01:26:09;;;;;;;1999.90;999.90;;;5.20;99.90;;;;;;5012623;28;20482;-71
2021/12/05 01:28:54;;;;;;;1999.90;999.90;;;5.20;99.90;;;;;;5011728;28;20455;-71
2021/12/05 01:31:31;;;;;;;1999.90;999.90;;;5.20;99.90;;;;;;5011967;28;20903;-71
2021/12/05 01:34:11;;;;;;;1999.90;999.90;;;5.20;99.90;;;;;;5012254;28;20570;-71
2021/12/05 01:36:47;;;;;;;1999.90;999.90;;;5.20;99.90;;;;;;5011426;28;20988;-71
2021/12/05 01:39:29;;;;;;;1999.90;999.90;;;5.20;99.90;;;;;;5011800;28;20461;-70
2021/12/05 01:45:20;;;;;;;1999.90;999.90;;;5.20;99.90;;;;;;5011179;28;20978;-71
2021/12/05 01:48:21;;;;;;;1999.90;999.90;;;5.20;99.90;;;;;;5012088;28;20528;-71
2021/12/05 01:53:46;;;;;;;1999.90;999.90;;;5.30;99.90;;;;;;5012004;28;20403;-71
2021/12/05 01:56:28;;;;;;;1999.90;999.90;;;5.30;99.90;;;;;;5011408;28;20475;-71
2021/12/05 02:34:55;;;;;;;1999.90;999.90;;;4.90;99.90;;;;;;5000882;28;20482;-71
2021/12/05 02:37:51;;;;;;;1999.90;999.90;;;5.00;99.90;;;;;;5014687;28;20888;-72
2021/12/05 02:40:30;;;;;;;1999.90;999.90;;;4.90;99.90;;;;;;5015054;28;20475;-72
2021/12/05 02:43:03;;;;;;;1999.90;999.90;;;4.90;99.90;;;;;;5015096;28;20432;-71
2021/12/05 02:45:32;;;;;;;1999.90;999.90;;;5.00;99.90;;;;;;5014648;28;20471;-72
2021/12/05 02:47:58;;;;;;;1999.90;999.90;;;5.00;99.90;;;;;;5014981;28;20451;-72
2021/12/05 02:50:30;;;;;;;1999.90;999.90;;;5.10;99.90;;;;;;5014438;28;20444;-71
2021/12/05 02:53:04;;;;;;;1999.90;999.90;;;5.20;99.90;;;;;;5014793;28;20466;-71
2021/12/05 02:55:37;;;;;;;1999.90;999.90;;;5.20;99.90;;;;;;5014136;28;20490;-71
2021/12/05 02:58:15;;;;;;;1999.90;999.90;;;5.20;99.90;;;;;;5014957;28;20490;-71
2021/12/05 03:00:52;;;;;;;1999.90;999.90;;;5.20;99.90;;;;;;5014300;28;20544;-67
2021/12/05 03:03:23;;;;;;;1999.90;999.90;;;5.30;99.90;;;;;;5014811;28;20429;-71
2021/12/05 03:05:58;;;;;;;1999.90;999.90;;;5.20;99.90;;;;;;5014215;28;20468;-71
2021/12/05 03:08:26;;;;;;;1999.90;999.90;;;5.40;99.90;;;;;;5014710;28;20436;-71
2021/12/05 03:10:55;;;;;;;1999.90;999.90;;;5.30;99.90;;;;;;5014176;28;20869;-71
2021/12/05 03:13:22;;;;;;;1999.90;999.90;;;5.20;99.90;;;;;;5014339;28;20444;-71
2021/12/05 03:15:49;;;;;;;1999.90;999.90;;;5.20;99.90;;;;;;5014254;28;20468;-71
2021/12/05 03:18:17;;;;;;;1999.90;999.90;;;5.10;99.90;;;;;;5013628;28;20456;-70
2021/12/05 03:20:43;;;;;;;1999.90;999.90;;;5.10;99.90;;;;;;5014070;28;20550;-71
2021/12/05 03:23:10;;;;;;;1999.90;999.90;;;5.10;99.90;;;;;;5014226;28;20456;-71
2021/12/05 03:25:39;;;;;;;1999.90;999.90;;;5.00;99.90;;;;;;5014052;28;20468;-72
2021/12/05 03:28:06;;;;;;;1999.90;999.90;;;5.00;99.90;;;;;;5013853;28;20460;-71
2021/12/05 03:30:34;;;;;;;1999.90;999.90;;;5.00;99.90;;;;;;5013646;28;20463;-71
2021/12/05 03:33:01;;;;;;;1999.90;999.90;;;5.00;99.90;;;;;;5013400;28;20940;-71
2021/12/05 03:35:29;;;;;;;1999.90;999.90;;;5.00;99.90;;;;;;5013702;28;20514;-71
2021/12/05 03:37:57;;;;;;;1999.90;999.90;;;5.00;99.90;;;;;;5013508;28;20510;-71
2021/12/05 03:40:26;;;;;;;1999.90;999.90;;;5.10;99.90;;;;;;5013574;28;20599;-68
2021/12/05 03:42:56;;;;;;;1999.90;999.90;;;5.10;99.90;;;;;;5013994;28;20452;-71
2021/12/05 03:45:28;;;;;;;1999.90;999.90;;;5.20;99.90;;;;;;5013640;28;20472;-72
2021/12/05 03:47:57;;;;;;;1999.90;999.90;;;5.20;99.90;;;;;;5013497;28;20448;-71
2021/12/05 03:50:25;;;;;;;1999.90;999.90;;;5.10;99.90;;;;;;5013625;28;20444;-71
2021/12/05 03:52:52;;;;;;;1999.90;999.90;;;5.00;99.90;;;;;;5013887;28;20448;-71
2021/12/05 03:55:20;;;;;;;1999.90;999.90;;;4.90;99.90;;;;;;5013390;28;20464;-72
2021/12/05 03:57:47;;;;;;;1999.90;999.90;;;4.90;99.90;;;;;;5013574;28;20452;-72
2021/12/05 04:00:21;;;;;;;1999.90;999.90;;;4.90;99.90;;;;;;5012844;28;21077;-71
2021/12/05 04:02:48;;;;;;;1999.90;999.90;;;5.00;99.90;;;;;;5013829;28;20502;-71
2021/12/05 04:05:15;;;;;;;1999.90;999.90;;;5.00;99.90;;;;;;5013180;28;20936;-71
2021/12/05 04:07:42;;;;;;;1999.90;999.90;;;5.00;99.90;;;;;;5013160;28;20464;-71
2021/12/05 04:10:09;;;;;;;1999.90;999.90;;;4.90;99.90;;;;;;5013084;28;20447;-73
2021/12/05 04:12:36;;;;;;;1999.90;999.90;;;5.00;99.90;;;;;;5013376;28;20805;-71
2021/12/05 04:15:05;;;;;;;1999.90;999.90;;;5.60;99.90;;;;;;5013090;28;20510;-73
2021/12/05 04:17:33;;;;;;;1999.90;999.90;;;5.00;99.90;;;;;;5013131;28;20510;-71
2021/12/05 04:19:59;;;;;;;1999.90;999.90;;;5.00;99.90;;;;;;5012669;28;20448;-70
2021/12/05 04:22:26;;;;;;;1999.90;999.90;;;5.00;99.90;;;;;;5013216;28;20509;-71
2021/12/05 04:24:53;;;;;;;1999.90;999.90;;;5.00;99.90;;;;;;5013279;28;20669;-71
2021/12/05 04:27:20;;;;;;;1999.90;999.90;;;5.00;99.90;;;;;;5012747;28;20472;-71
2021/12/05 04:29:46;;;;;;;1999.90;999.90;;;5.00;99.90;;;;;;5013109;28;20502;-69
2021/12/05 04:32:13;;;;;;;1999.90;999.90;;;5.00;99.90;;;;;;5013068;28;20459;-68
2021/12/05 04:34:41;;;;;;;1999.90;999.90;;;5.00;99.90;;;;;;5012816;28;20507;-69
2021/12/05 04:37:08;;;;;;;1999.90;999.90;;;5.00;99.90;;;;;;5013804;28;20468;-69
2021/12/05 04:39:37;;;;;;;1999.90;999.90;;;5.00;99.90;;;;;;5014710;28;20448;-69
2021/12/05 04:42:04;;;;;;;1999.90;999.90;;;5.00;99.90;;;;;;5013450;28;20484;-69
2021/12/05 04:44:32;;;;;;;1999.90;999.90;;;5.00;99.90;;;;;;5012770;28;20506;-70
2021/12/05 04:47:00;;;;;;;1999.90;999.90;;;5.00;99.90;;;;;;5013008;28;20506;-69
2021/12/05 04:49:27;;;;;;;1999.90;999.90;;;5.10;99.90;;;;;;5013607;28;20452;-69
2021/12/05 04:51:55;;;;;;;1999.90;999.90;;;5.00;99.90;;;;;;5012797;28;20448;-69
2021/12/05 04:54:22;;;;;;;1999.90;999.90;;;4.90;99.90;;;;;;5013543;28;20448;-69
2021/12/05 04:56:50;;;;;;;1999.90;999.90;;;4.90;99.90;;;;;;5012519;28;20468;-69
2021/12/05 04:59:18;;;;;;;1999.90;999.90;;;4.80;99.90;;;;;;5013522;28;20498;-69
2021/12/05 05:01:48;;;;;;;1999.90;999.90;;;4.80;99.90;;;;;;5012725;28;20484;-69
2021/12/05 05:04:24;;;;;;;1999.90;999.90;;;4.70;99.90;;;;;;5013202;28;20498;-69
2021/12/05 05:06:51;;;;;;;1999.90;999.90;;;4.60;99.90;;;;;;5012289;28;20475;-70
2021/12/05 05:09:20;;;;;;;1999.90;999.90;;;4.60;99.90;;;;;;5012373;28;20909;-69
2021/12/05 05:11:47;;;;;;;1999.90;999.90;;;4.70;99.90;;;;;;5012437;28;20498;-69
2021/12/05 05:14:14;;;;;;;1999.90;999.90;;;4.60;99.90;;;;;;5012852;28;20448;-68
2021/12/05 05:16:41;;;;;;;1999.90;999.90;;;4.60;99.90;;;;;;5012647;28;20562;-69
2021/12/05 05:19:09;;;;;;;1999.90;999.90;;;4.70;99.90;;;;;;5012344;28;20452;-69
2021/12/05 05:21:41;;;;;;;1999.90;999.90;;;4.60;99.90;;;;;;5012707;28;20586;-69
2021/12/05 05:24:45;;;;;;;1999.90;999.90;;;4.60;99.90;;;;;;5012591;28;20828;-70
2021/12/05 05:30:27;;;;;;;1999.90;999.90;;;4.70;99.90;;;;;;4992602;28;20975;-69
2021/12/05 05:41:42;;;;;;;1999.90;999.90;;;4.80;99.90;;;;;;5012104;28;20475;-69
2021/12/05 05:44:26;;;;;;;1999.90;999.90;;;4.80;99.90;;;;;;5011874;28;20454;-69
2021/12/05 05:46:57;;;;;;;1999.90;999.90;;;4.80;99.90;;;;;;5012179;28;20475;-69
2021/12/05 05:49:32;;;;;;;1999.90;999.90;;;5.00;99.90;;;;;;5010972;28;20975;-69
2021/12/05 05:51:59;;;;;;;1999.90;999.90;;;5.00;99.90;;;;;;5012236;28;20502;-69
2021/12/05 05:54:27;;;;;;;1999.90;999.90;;;4.90;99.90;;;;;;5013028;28;21006;-69
2021/12/05 05:56:59;;;;;;;1999.90;999.90;;;4.90;99.90;;;;;;5016471;28;20483;-69
2021/12/05 05:59:31;;;;;;;1999.90;999.90;;;4.80;99.90;;;;;;5015923;28;20827;-69
2021/12/05 06:03:19;;;;;;;1999.90;999.90;;;4.80;99.90;;;;;;5015874;28;20562;-69
2021/12/05 06:04:50;;;;;;;1999.90;999.90;;;4.80;99.90;;;;;;5015319;28;20447;-69
2021/12/05 06:07:17;;;;;;;1999.90;999.90;;;4.80;99.90;;;;;;5015641;28;20464;-69
2021/12/05 06:09:43;;;;;;;1999.90;999.90;;;4.80;99.90;;;;;;5015804;28;20451;-69
2021/12/05 06:12:10;;;;;;;1999.90;999.90;;;4.70;99.90;;;;;;5016254;28;20513;-69
2021/12/05 06:14:38;;;;;;;1999.90;999.90;;;4.60;99.90;;;;;;5016901;28;20947;-69
2021/12/05 06:17:06;;;;;;;1999.90;999.90;;;4.50;99.90;;;;;;5016724;28;20896;-69
2021/12/05 06:19:33;;;;;;;1999.90;999.90;;;4.40;99.90;;;;;;5015671;28;20460;-69
2021/12/05 06:21:59;;;;;;;1999.90;999.90;;;4.40;99.90;;;;;;5015549;28;20476;-69
2021/12/05 06:24:27;;;;;;;1999.90;999.90;;;4.40;99.90;;;;;;5016020;28;20455;-69
2021/12/05 06:26:53;;;;;;;1999.90;999.90;;;4.30;99.90;;;;;;5015749;28;20476;-70
2021/12/05 06:29:22;;;;;;;1999.90;999.90;;;4.10;99.90;;;;;;4996824;28;20456;-69
2021/12/05 06:32:00;;;;;;;1999.90;999.90;;;4.00;99.90;;;;;;4996381;28;20445;-69
2021/12/05 06:40:14;;;;;;;1999.90;999.90;;;3.90;99.90;;;;;;5013552;28;20436;-66
2021/12/05 06:42:54;;;;;;;1999.90;999.90;;;3.80;99.90;;;;;;5015266;28;20488;-68
2021/12/05 06:48:07;;;;;;;1999.90;999.90;;;3.60;99.90;;;;;;5014721;28;20451;-71
2021/12/05 06:50:34;;;;;;;1999.90;999.90;;;3.60;99.90;;;;;;5014759;28;20826;-69
2021/12/05 06:53:01;;;;;;;1999.90;999.90;;;3.50;99.90;;;;;;5015000;28;20448;-69
2021/12/05 06:55:34;;;;;;;1999.90;999.90;;;3.50;99.90;;;;;;5015483;28;20479;-70
2021/12/05 06:58:01;;;;;;;1999.90;999.90;;;3.50;99.90;;;;;;5014907;28;20436;-69
2021/12/05 07:00:31;;;;;;;1999.90;999.90;;;3.60;99.90;;;;;;5014607;28;20444;-69
2021/12/05 07:02:58;;;;;;;1999.90;999.90;;;3.80;99.90;;;;;;5014854;28;20874;-69
2021/12/05 07:05:51;;;;;;;1999.90;999.90;;;3.70;99.90;;;;;;5014456;28;20581;-69
2021/12/05 07:08:19;;;;;;;1999.90;999.90;;;3.70;99.90;;;;;;5014594;28;20539;-70
2021/12/05 07:10:53;;;;;;;1999.90;999.90;;;3.80;99.90;;;;;;5014459;28;20466;-70
2021/12/05 07:16:14;;;;;;;1999.90;999.90;;;3.90;99.90;;;;;;5014415;28;20951;-69
2021/12/05 07:18:54;;;;;;;1999.90;999.90;;;3.90;99.90;;;;;;5014321;28;20452;-69
2021/12/05 07:21:36;;;;;;;1999.90;999.90;;;3.90;99.90;;;;;;5014286;28;20479;-69
2021/12/05 07:24:11;;;;;;;1999.90;999.90;;;3.90;99.90;;;;;;5014325;28;20817;-66
2021/12/05 07:26:52;;;;;;;1999.90;999.90;;;4.10;99.90;;;;;;5013972;28;20944;-68
2021/12/05 07:40:23;;;;;;;1999.90;999.90;;;3.90;99.90;;;;;;5013011;28;20424;-69
2021/12/05 07:42:50;;;;;;;1999.90;999.90;;;3.90;99.90;;;;;;5012928;28;20476;-69
2021/12/05 07:45:22;;;;;;;1999.90;999.90;;;4.00;99.90;;;;;;5012572;28;20452;-69
2021/12/05 07:47:51;;;;;;;1999.90;999.90;;;4.00;99.90;;;;;;5012797;28;20441;-70
2021/12/05 07:50:22;;;;;;;1999.90;999.90;;;3.90;99.90;;;;;;5012419;28;20510;-68
2021/12/05 07:52:53;;;;;;;1999.90;999.90;;;4.00;99.90;;;;;;5013088;28;20440;-70
2021/12/05 07:55:25;;;;;;;1999.90;999.90;;;4.00;99.90;;;;;;5011922;28;20880;-69
2021/12/05 07:58:06;;;;;;;1999.90;999.90;;;3.80;99.90;;;;;;5012425;28;20595;-69
2021/12/05 08:00:41;;;;;;;1999.90;999.90;;;3.80;99.90;;;;;;5015044;28;20534;-69
2021/12/05 08:14:33;;;;;;;1999.90;999.90;;;3.60;99.90;;;;;;5012469;28;20420;-70
2021/12/05 08:17:01;;;;;;;1999.90;999.90;;;3.80;99.90;;;;;;5004864;28;20560;-69
2021/12/05 08:19:28;;;;;;;1999.90;999.90;;;4.00;99.90;;;;;;5009100;28;20463;-70
2021/12/05 08:21:55;;;;;;;1999.90;999.90;;;4.10;99.90;;;;;;5011994;28;20476;-69
2021/12/05 08:24:24;;;;;;;1999.90;999.90;;;4.10;99.90;;;;;;5011659;28;20541;-69
2021/12/05 08:26:52;;;;;;;1999.90;999.90;;;4.30;99.90;;;;;;5007902;28;20977;-68
2021/12/05 08:29:26;;;;;;;1999.90;999.90;;;4.50;99.90;;;;;;5007055;28;20526;-69
2021/12/05 08:34:50;;;;;;;1999.90;999.90;;;4.40;99.90;;;;;;5011971;28;20487;-70
2021/12/05 08:37:42;;;;;;;1999.90;999.90;;;4.30;99.90;;;;;;5013366;28;20478;-70
2021/12/05 09:08:50;;;;;;;1999.90;999.90;;;5.20;99.90;;;;;;5062449;28;20492;-71
2021/12/05 09:22:48;;;;;;;1999.90;999.90;;;5.40;99.90;;;;;;5087699;28;20474;-70
2021/12/05 09:25:39;;;;;;;1999.90;999.90;;;5.30;99.90;;;;;;5088510;28;20472;-70
2021/12/05 09:28:41;;;;;;;1999.90;999.90;;;5.50;99.90;;;;;;5084737;28;20441;-70
2021/12/05 09:31:28;;;;;;;1999.90;999.90;;;5.50;99.90;;;;;;5069570;28;20445;-71
2021/12/05 09:40:07;;;;;;;1999.90;999.90;;;5.80;99.90;;;;;;5090227;28;20444;-70
2021/12/05 09:51:50;;;;;;;1999.90;999.90;;;6.00;99.90;;;;;;5068862;28;20440;-70
2021/12/05 10:02:43;;;;;;;1999.90;999.90;;;6.20;99.90;;;;;;5068712;28;20450;-70
2021/12/05 10:10:56;;;;;;;1999.90;999.90;;;6.80;99.90;;;;;;5068431;28;20451;-71
2021/12/05 10:13:30;;;;;;;1999.90;999.90;;;6.90;99.90;;;;;;5073729;28;20461;-71
2021/12/05 10:16:10;;;;;;;1999.90;999.90;;;7.00;99.90;;;;;;5073914;28;20993;-70
2021/12/05 10:27:27;;;;;;;1999.90;999.90;;;7.60;99.90;;;;;;5054177;28;20481;-70
2021/12/05 10:35:56;;;;;;;1999.90;999.90;;;7.50;99.90;;;;;;5073865;28;20507;-71
2021/12/05 10:38:26;;;;;;;1999.90;999.90;;;7.60;99.90;;;;;;5074489;28;20452;-71
2021/12/05 10:41:01;;;;;;;1999.90;999.90;;;7.50;99.90;;;;;;5065988;28;20445;-70
2021/12/05 10:43:31;;;;;;;1999.90;999.90;;;7.50;99.90;;;;;;5073971;28;20433;-70
2021/12/05 10:46:03;;;;;;;1999.90;999.90;;;7.40;99.90;;;;;;5068842;28;20482;-71
2021/12/05 10:48:35;;;;;;;1999.90;999.90;;;7.20;99.90;;;;;;5067238;28;20446;-71
2021/12/05 10:51:03;;;;;;;1999.90;999.90;;;7.20;99.90;;;;;;5072750;28;20429;-70
2021/12/05 10:53:37;;;;;;;1999.90;999.90;;;7.20;99.90;;;;;;5053871;28;20450;-70
2021/12/05 10:56:16;;;;;;;1999.90;999.90;;;7.30;99.90;;;;;;5054522;28;20815;-70
2021/12/05 10:58:51;;;;;;;1999.90;999.90;;;7.50;99.90;;;;;;5054393;28;20927;-71
2021/12/05 11:01:22;;;;;;;1999.90;999.90;;;7.50;99.90;;;;;;5069402;28;20449;-71
2021/12/05 11:03:53;;;;;;;1999.90;999.90;;;7.60;99.90;;;;;;5073290;28;20985;-72
2021/12/05 11:06:33;;;;;;;1999.90;999.90;;;7.70;99.90;;;;;;5065374;28;20505;-70
2021/12/05 11:09:04;;;;;;;1999.90;999.90;;;7.80;99.90;;;;;;5060979;28;20868;-71
2021/12/05 11:11:31;;;;;;;1999.90;999.90;;;7.60;99.90;;;;;;5074550;28;20433;-70
2021/12/05 11:14:01;;;;;;;1999.90;999.90;;;7.60;99.90;;;;;;5074315;28;20509;-70
2021/12/05 11:16:37;;;;;;;1999.90;999.90;;;7.40;99.90;;;;;;5074601;28;20473;-71
2021/12/05 11:19:13;;;;;;;1999.90;999.90;;;7.20;99.90;;;;;;5074936;28;20868;-70
2021/12/05 11:21:46;;;;;;;1999.90;999.90;;;7.20;99.90;;;;;;5074551;28;20999;-70
2021/12/05 11:24:25;;;;;;;1999.90;999.90;;;7.20;99.90;;;;;;5074580;28;20473;-70
2021/12/05 11:27:06;;;;;;;1999.90;999.90;;;7.20;99.90;;;;;;5073359;28;20461;-70
2021/12/05 11:30:10;;;;;;;1999.90;999.90;;;7.30;99.90;;;;;;5054728;28;20462;-70
2021/12/05 11:32:41;;;;;;;1999.90;999.90;;;7.50;99.90;;;;;;5053472;28;20984;-69
2021/12/05 11:35:17;;;;;;;1999.90;999.90;;;7.60;99.90;;;;;;5052897;28;20430;-71
2021/12/05 11:37:50;;;;;;;1999.90;999.90;;;7.60;99.90;;;;;;5053303;28;20426;-70
2021/12/05 11:40:16;;;;;;;1999.90;999.90;;;7.60;99.90;;;;;;5061329;28;20471;-70
2021/12/05 11:42:52;;;;;;;1999.90;999.90;;;7.10;99.90;;;;;;5074652;28;20856;-70
2021/12/05 11:45:20;;;;;;;1999.90;999.90;;;7.10;99.90;;;;;;5073853;28;20485;-70
2021/12/05 11:47:47;;;;;;;1999.90;999.90;;;7.10;99.90;;;;;;5073900;28;20441;-70
2021/12/05 11:50:13;;;;;;;1999.90;999.90;;;7.10;99.90;;;;;;5074175;28;20437;-70
2021/12/05 11:52:41;;;;;;;1999.90;999.90;;;7.00;99.90;;;;;;5063088;28;20446;-70
2021/12/05 11:55:20;;;;;;;1999.90;999.90;;;7.00;99.90;;;;;;5053812;28;20450;-70
2021/12/05 11:57:47;;;;;;;1999.90;999.90;;;6.90;99.90;;;;;;5054009;28;20868;-70
2021/12/05 12:00:17;;;;;;;1999.90;999.90;;;6.80;99.90;;;;;;5054410;28;20438;-71
2021/12/05 12:02:47;;;;;;;1999.90;999.90;;;6.90;99.90;;;;;;5052842;28;21300;-70
2021/12/05 12:05:18;;;;;;;1999.90;999.90;;;7.00;99.90;;;;;;5068195;28;20487;-70
2021/12/05 12:07:47;;;;;;;1999.90;999.90;;;7.10;99.90;;;;;;5072522;28;20524;-70
2021/12/05 12:10:16;;;;;;;1999.90;999.90;;;7.20;99.90;;;;;;5072360;28;20518;-70
2021/12/05 12:12:46;;;;;;;1999.90;999.90;;;7.10;99.90;;;;;;5072117;28;20445;-70
2021/12/05 12:15:15;;;;;;;1999.90;999.90;;;7.20;99.90;;;;;;5072195;28;20446;-72
2021/12/05 12:17:42;;;;;;;1999.90;999.90;;;7.30;99.90;;;;;;5053459;28;21096;-70
2021/12/05 12:20:13;;;;;;;1999.90;999.90;;;7.30;99.90;;;;;;5051747;28;20511;-71
2021/12/05 12:22:40;;;;;;;1999.90;999.90;;;7.30;99.90;;;;;;5051951;28;20592;-71
2021/12/05 12:25:14;;;;;;;1999.90;999.90;;;7.40;99.90;;;;;;5062165;28;20476;-71
2021/12/05 12:27:43;;;;;;;1999.90;999.90;;;7.40;99.90;;;;;;5071731;28;20548;-70
2021/12/05 12:30:12;;;;;;;1999.90;999.90;;;7.40;99.90;;;;;;5071765;28;20442;-71
2021/12/05 12:32:42;;;;;;;1999.90;999.90;;;7.30;99.90;;;;;;5072077;28;20441;-71
2021/12/05 12:35:13;;;;;;;1999.90;999.90;;;7.30;99.90;;;;;;5060816;28;20478;-71
2021/12/05 12:37:55;;;;;;;1999.90;999.90;;;7.30;99.90;;;;;;5051692;28;21200;-70
2021/12/05 12:40:33;;;;;;;1999.90;999.90;;;7.40;99.90;;;;;;5051739;28;20453;-70
2021/12/05 12:43:00;;;;;;;1999.90;999.90;;;7.40;99.90;;;;;;5051943;28;20511;-70
2021/12/05 12:45:27;;;;;;;1999.90;999.90;;;7.40;99.90;;;;;;5051304;28;21284;-70
2021/12/05 12:47:56;;;;;;;1999.90;999.90;;;7.50;99.90;;;;;;5068263;28;20842;-70
2021/12/05 12:50:35;;;;;;;1999.90;999.90;;;7.50;99.90;;;;;;5071673;28;20500;-70
2021/12/05 12:53:09;;;;;;;1999.90;999.90;;;7.50;99.90;;;;;;5071876;28;20540;-71
2021/12/05 12:55:53;;;;;;;1999.90;999.90;;;7.60;99.90;;;;;;5071999;28;20465;-69
2021/12/05 12:58:39;;;;;;;1999.90;999.90;;;7.60;99.90;;;;;;5070982;28;20507;-71
2021/12/05 13:01:19;;;;;;;1999.90;999.90;;;7.40;99.90;;;;;;5071584;28;20544;-70
2021/12/05 13:04:27;;;;;;;1999.90;999.90;;;7.40;99.90;;;;;;5071767;28;20453;-69
2021/12/05 13:10:04;;;;;;;1999.90;999.90;;;7.20;99.90;;;;;;5071680;28;20472;-70
2021/12/05 13:12:52;;;;;;;1999.90;999.90;;;7.40;99.90;;;;;;5051737;28;20446;-71
2021/12/05 13:15:33;;;;;;;1999.90;999.90;;;7.40;99.90;;;;;;5051143;28;20926;-70
2021/12/05 13:18:04;;;;;;;1999.90;999.90;;;7.40;99.90;;;;;;5051451;28;20803;-70
2021/12/05 13:20:52;;;;;;;1999.90;999.90;;;7.30;99.90;;;;;;5051565;28;20450;-70
2021/12/05 13:23:27;;;;;;;1999.90;999.90;;;7.30;99.90;;;;;;5064614;28;20452;-70
2021/12/05 13:26:11;;;;;;;1999.90;999.90;;;7.20;99.90;;;;;;5073190;28;20567;-69
2021/12/05 13:28:40;;;;;;;1999.90;999.90;;;7.20;99.90;;;;;;5071730;28;20756;-70
2021/12/05 13:31:50;;;;;;;1999.90;999.90;;;7.20;99.90;;;;;;5073124;28;20445;-69
2021/12/05 13:34:34;;;;;;;1999.90;999.90;;;7.30;99.90;;;;;;5058349;28;20510;-70
2021/12/05 13:37:28;;;;;;;1999.90;999.90;;;7.10;99.90;;;;;;5055466;28;20466;-70
2021/12/05 13:40:15;;;;;;;1999.90;999.90;;;7.00;99.90;;;;;;5054631;28;20504;-70
2021/12/05 13:42:47;;;;;;;1999.90;999.90;;;7.10;99.90;;;;;;5055357;28;20430;-70
2021/12/05 13:45:18;;;;;;;1999.90;999.90;;;7.10;99.90;;;;;;5054827;28;20488;-69
2021/12/05 13:48:05;;;;;;;1999.90;999.90;;;7.20;99.90;;;;;;5070649;28;20453;-70
2021/12/05 13:50:37;;;;;;;1999.90;999.90;;;7.20;99.90;;;;;;5075972;28;20495;-69
2021/12/05 13:53:44;;;;;;;1999.90;999.90;;;7.20;99.90;;;;;;5076510;28;20433;-69
2021/12/05 13:56:23;;;;;;;1999.90;999.90;;;7.10;99.90;;;;;;5076604;28;20548;-70
2021/12/05 13:58:51;;;;;;;1999.90;999.90;;;7.10;99.90;;;;;;5069932;28;20540;-69
2021/12/05 14:01:21;;;;;;;1999.90;999.90;;;7.00;99.90;;;;;;5055270;28;20458;-72
2021/12/05 14:03:52;;;;;;;1999.90;999.90;;;7.00;99.90;;;;;;5055596;28;20468;-70
2021/12/05 14:06:33;;;;;;;1999.90;999.90;;;7.00;99.90;;;;;;5055389;28;20540;-72
2021/12/05 14:09:05;;;;;;;1999.90;999.90;;;6.90;99.90;;;;;;5054962;28;20461;-69
2021/12/05 14:11:35;;;;;;;1999.90;999.90;;;6.80;99.90;;;;;;5063385;28;20511;-70
2021/12/05 14:14:04;;;;;;;1999.90;999.90;;;6.80;99.90;;;;;;5075215;28;20450;-71
2021/12/05 14:16:33;;;;;;;1999.90;999.90;;;6.80;99.90;;;;;;5075344;28;20528;-70
2021/12/05 14:19:00;;;;;;;1999.90;999.90;;;6.70;99.90;;;;;;5067980;28;20527;-69
2021/12/05 14:21:30;;;;;;;1999.90;999.90;;;6.60;99.90;;;;;;5066654;28;20454;-69
2021/12/05 14:23:58;;;;;;;1999.90;999.90;;;6.50;99.90;;;;;;5055941;28;20502;-70
2021/12/05 14:26:27;;;;;;;1999.90;999.90;;;6.40;99.90;;;;;;5058767;28;20538;-69
2021/12/05 14:29:07;;;;;;;1999.90;999.90;;;6.30;99.90;;;;;;5070068;28;20831;-70
2021/12/05 14:31:37;;;;;;;1999.90;999.90;;;6.30;99.90;;;;;;5056680;28;20439;-69
2021/12/05 14:34:06;;;;;;;1999.90;999.90;;;6.20;99.90;;;;;;5059450;28;20495;-70
2021/12/05 14:36:35;;;;;;;1999.90;999.90;;;6.10;99.90;;;;;;5073819;28;20518;-72
2021/12/05 14:39:11;;;;;;;1999.90;999.90;;;6.00;99.90;;;;;;5075100;28;20449;-69
2021/12/05 14:41:39;;;;;;;1999.90;999.90;;;5.90;99.90;;;;;;5075029;28;20429;-69
2021/12/05 14:44:08;;;;;;;1999.90;999.90;;;5.90;99.90;;;;;;5075129;28;20461;-72
2021/12/05 14:46:43;;;;;;;1999.90;999.90;;;5.80;99.90;;;;;;5075206;28;20481;-70
2021/12/05 14:49:10;;;;;;;1999.90;999.90;;;5.80;99.90;;;;;;5058650;28;20441;-70
2021/12/05 14:51:40;;;;;;;1999.90;999.90;;;5.70;99.90;;;;;;5054951;28;20451;-70
2021/12/05 14:54:08;;;;;;;1999.90;999.90;;;5.70;99.90;;;;;;5055099;28;20478;-70
2021/12/05 14:56:37;;;;;;;1999.90;999.90;;;5.60;99.90;;;;;;5055261;28;20462;-70
2021/12/05 14:59:09;;;;;;;1999.90;999.90;;;5.60;99.90;;;;;;5056506;28;20442;-69
2021/12/05 15:01:37;;;;;;;1999.90;999.90;;;5.50;99.90;;;;;;5074360;28;20490;-70
2021/12/05 15:04:06;;;;;;;1999.90;999.90;;;5.40;99.90;;;;;;5074764;28;20437;-69
2021/12/05 15:06:35;;;;;;;1999.90;999.90;;;5.30;99.90;;;;;;5074273;28;20535;-72
2021/12/05 15:09:05;;;;;;;1999.90;999.90;;;5.20;99.90;;;;;;5073857;28;20460;-72
2021/12/05 15:11:32;;;;;;;1999.90;999.90;;;5.20;99.90;;;;;;5069191;28;20492;-74
2021/12/05 15:14:06;;;;;;;1999.90;999.90;;;5.20;99.90;;;;;;5053435;28;20508;-72
2021/12/05 15:16:34;;;;;;;1999.90;999.90;;;5.20;99.90;;;;;;5055824;28;20462;-69
2021/12/05 15:19:01;;;;;;;1999.90;999.90;;;5.10;99.90;;;;;;5057144;28;20447;-69
2021/12/05 15:21:30;;;;;;;1999.90;999.90;;;5.00;99.90;;;;;;5056384;28;20446;-69
2021/12/05 15:23:57;;;;;;;1999.90;999.90;;;5.00;99.90;;;;;;5061910;28;20545;-68
2021/12/05 15:26:32;;;;;;;1999.90;999.90;;;4.90;99.90;;;;;;5055825;28;20985;-69
2021/12/05 15:29:01;;;;;;;1999.90;999.90;;;4.80;99.90;;;;;;5055995;28;20525;-70
2021/12/05 15:31:36;;;;;;;1999.90;999.90;;;4.70;99.90;;;;;;5054138;28;20533;-69
2021/12/05 15:34:03;;;;;;;1999.90;999.90;;;4.50;99.90;;;;;;5054854;28;20426;-70
2021/12/05 15:36:34;;;;;;;1999.90;999.90;;;4.40;99.90;;;;;;5065617;28;20545;-71
2021/12/05 15:39:12;;;;;;;1999.90;999.90;;;4.40;99.90;;;;;;5074528;28;20485;-69
2021/12/05 15:41:39;;;;;;;1999.90;999.90;;;4.30;99.90;;;;;;5074172;28;20491;-69
2021/12/05 15:44:06;;;;;;;1999.90;999.90;;;4.20;99.90;;;;;;5074067;28;20453;-69
2021/12/05 15:46:34;;;;;;;1999.90;999.90;;;4.20;99.90;;;;;;5073408;28;20530;-70
2021/12/05 15:49:04;;;;;;;1999.90;999.90;;;4.10;99.90;;;;;;5065656;28;20860;-69
2021/12/05 15:51:31;;;;;;;1999.90;999.90;;;4.00;99.90;;;;;;5053084;28;20446;-69
2021/12/05 15:53:59;;;;;;;1999.90;999.90;;;4.00;99.90;;;;;;5052966;28;20450;-69
2021/12/05 15:56:26;;;;;;;1999.90;999.90;;;4.00;99.90;;;;;;5053134;28;20463;-69
2021/12/05 15:59:00;;;;;;;1999.90;999.90;;;4.00;99.90;;;;;;5053483;28;20451;-69
2021/12/05 16:01:28;;;;;;;1999.90;999.90;;;3.90;99.90;;;;;;5071386;28;20527;-70